<?xml version="1.0" encoding="utf-8"?>
<gpx xmlns:xsi="http://www.w3.org/2001/XMLSchema-instance" xmlns:xsd="http://www.w3.org/2001/XMLSchema" version="1.1" creator="Shapelink.com" xmlns="http://www.topografix.com/GPX/1/1" xmlns:gpxtpx="http://www.garmin.com/xmlschemas/TrackPointExtension/v1">
  <metadata>
    <name>Övrigt 1.38 km, 2019-07-29</name>
    <desc></desc>
    <author><name>Marian Moron</name></author> 
    <time>2019-07-29T14:58:08Z</time>
  </metadata>
  <trk>
    <name>Övrigt 1.38 km, 2019-07-29</name>
    <trkseg>
      <trkpt lat="54.240883889524" lon="15.87385344388">
        <ele>0</ele>
        <time>2019-07-29T14:58:08Z</time>
      </trkpt>
      <trkpt lat="54.241165353726" lon="15.873702318223">
        <ele>0</ele>
        <time>2019-07-29T14:58:57Z</time>
      </trkpt>
      <trkpt lat="54.24118010587" lon="15.873706257716">
        <ele>0</ele>
        <time>2019-07-29T15:01:38Z</time>
      </trkpt>
      <trkpt lat="54.241217321506" lon="15.873709359019">
        <ele>0</ele>
        <time>2019-07-29T15:01:46Z</time>
      </trkpt>
      <trkpt lat="54.241223943207" lon="15.873741042601">
        <ele>0</ele>
        <time>2019-07-29T15:01:49Z</time>
      </trkpt>
      <trkpt lat="54.241256548798" lon="15.873748251035">
        <ele>0</ele>
        <time>2019-07-29T15:02:02Z</time>
      </trkpt>
      <trkpt lat="54.241293093882" lon="15.873800721729">
        <ele>0</ele>
        <time>2019-07-29T15:02:06Z</time>
      </trkpt>
      <trkpt lat="54.241380349461" lon="15.87392217546">
        <ele>0</ele>
        <time>2019-07-29T15:02:17Z</time>
      </trkpt>
      <trkpt lat="54.241392587035" lon="15.873977831276">
        <ele>0</ele>
        <time>2019-07-29T15:02:22Z</time>
      </trkpt>
      <trkpt lat="54.241388479904" lon="15.873964168779">
        <ele>0</ele>
        <time>2019-07-29T15:02:33Z</time>
      </trkpt>
      <trkpt lat="54.241351599544" lon="15.873936843785">
        <ele>0</ele>
        <time>2019-07-29T15:02:37Z</time>
      </trkpt>
      <trkpt lat="54.241220506628" lon="15.873763673731">
        <ele>0</ele>
        <time>2019-07-29T15:02:53Z</time>
      </trkpt>
      <trkpt lat="54.24122369175" lon="15.873720339308">
        <ele>0</ele>
        <time>2019-07-29T15:04:10Z</time>
      </trkpt>
      <trkpt lat="54.2414625759" lon="15.873780437531">
        <ele>0</ele>
        <time>2019-07-29T15:04:46Z</time>
      </trkpt>
      <trkpt lat="54.241757534961" lon="15.873761997351">
        <ele>0</ele>
        <time>2019-07-29T15:05:23Z</time>
      </trkpt>
      <trkpt lat="54.241791816932" lon="15.873782449187">
        <ele>0</ele>
        <time>2019-07-29T15:05:27Z</time>
      </trkpt>
      <trkpt lat="54.241847137472" lon="15.873775827486">
        <ele>0</ele>
        <time>2019-07-29T15:05:34Z</time>
      </trkpt>
      <trkpt lat="54.242071353297" lon="15.873726709552">
        <ele>0</ele>
        <time>2019-07-29T15:06:42Z</time>
      </trkpt>
      <trkpt lat="54.242164476206" lon="15.873744814456">
        <ele>0</ele>
        <time>2019-07-29T15:06:54Z</time>
      </trkpt>
      <trkpt lat="54.242244858627" lon="15.873725787543">
        <ele>0</ele>
        <time>2019-07-29T15:07:06Z</time>
      </trkpt>
      <trkpt lat="54.242661774333" lon="15.873606680744">
        <ele>0</ele>
        <time>2019-07-29T15:08:26Z</time>
      </trkpt>
      <trkpt lat="54.242683315816" lon="15.873399396357">
        <ele>2.6</ele>
        <time>2019-07-29T15:09:21Z</time>
      </trkpt>
      <trkpt lat="54.242663366894" lon="15.873307530733">
        <ele>0.4</ele>
        <time>2019-07-29T15:10:00Z</time>
      </trkpt>
      <trkpt lat="54.242663953627" lon="15.873301579584">
        <ele>0</ele>
        <time>2019-07-29T15:10:05Z</time>
      </trkpt>
      <trkpt lat="54.242731847017" lon="15.873173420333">
        <ele>0</ele>
        <time>2019-07-29T15:10:46Z</time>
      </trkpt>
      <trkpt lat="54.242790520317" lon="15.873115501404">
        <ele>0</ele>
        <time>2019-07-29T15:11:07Z</time>
      </trkpt>
      <trkpt lat="54.242805523918" lon="15.873022127038">
        <ele>0</ele>
        <time>2019-07-29T15:11:59Z</time>
      </trkpt>
      <trkpt lat="54.242809211954" lon="15.872718869896">
        <ele>0</ele>
        <time>2019-07-29T15:13:24Z</time>
      </trkpt>
      <trkpt lat="54.242851289092" lon="15.872741668664">
        <ele>0</ele>
        <time>2019-07-29T15:13:58Z</time>
      </trkpt>
      <trkpt lat="54.243039462747" lon="15.873087422039">
        <ele>51.6</ele>
        <time>2019-07-29T15:17:05Z</time>
      </trkpt>
      <trkpt lat="54.242854893309" lon="15.872802605077">
        <ele>40.2</ele>
        <time>2019-07-29T15:18:52Z</time>
      </trkpt>
      <trkpt lat="54.242773421241" lon="15.872769077477">
        <ele>0</ele>
        <time>2019-07-29T15:20:44Z</time>
      </trkpt>
      <trkpt lat="54.242822455356" lon="15.872868989725">
        <ele>0</ele>
        <time>2019-07-29T15:20:56Z</time>
      </trkpt>
      <trkpt lat="54.242827735953" lon="15.873030928033">
        <ele>0</ele>
        <time>2019-07-29T15:21:06Z</time>
      </trkpt>
      <trkpt lat="54.242733020483" lon="15.873112232463">
        <ele>0</ele>
        <time>2019-07-29T15:25:40Z</time>
      </trkpt>
      <trkpt lat="54.242671832613" lon="15.87304123777">
        <ele>0</ele>
        <time>2019-07-29T15:28:06Z</time>
      </trkpt>
      <trkpt lat="54.242585834319" lon="15.873040483399">
        <ele>0.2</ele>
        <time>2019-07-29T15:35:08Z</time>
      </trkpt>
      <trkpt lat="54.242827819772" lon="15.873264363948">
        <ele>0</ele>
        <time>2019-07-29T15:36:38Z</time>
      </trkpt>
      <trkpt lat="54.242916584093" lon="15.872952473449">
        <ele>0</ele>
        <time>2019-07-29T15:37:33Z</time>
      </trkpt>
      <trkpt lat="54.242985399492" lon="15.873056995742">
        <ele>1.2</ele>
        <time>2019-07-29T15:40:04Z</time>
      </trkpt>
      <trkpt lat="54.242977436687" lon="15.873226310122">
        <ele>0</ele>
        <time>2019-07-29T15:41:42Z</time>
      </trkpt>
      <trkpt lat="54.242677532305" lon="15.87356510652">
        <ele>0</ele>
        <time>2019-07-29T15:43:08Z</time>
      </trkpt>
      <trkpt lat="54.242582313921" lon="15.873595951912">
        <ele>0</ele>
        <time>2019-07-29T15:44:05Z</time>
      </trkpt>
      <trkpt lat="54.242585834319" lon="15.873578769017">
        <ele>0</ele>
        <time>2019-07-29T15:44:15Z</time>
      </trkpt>
      <trkpt lat="54.242607794897" lon="15.873553958593">
        <ele>0</ele>
        <time>2019-07-29T15:44:19Z</time>
      </trkpt>
      <trkpt lat="54.242432445549" lon="15.873681447292">
        <ele>0</ele>
        <time>2019-07-29T15:47:08Z</time>
      </trkpt>
      <trkpt lat="54.241986779926" lon="15.873758309315">
        <ele>0</ele>
        <time>2019-07-29T15:48:13Z</time>
      </trkpt>
      <trkpt lat="54.241862811625" lon="15.873792339829">
        <ele>0</ele>
        <time>2019-07-29T15:48:38Z</time>
      </trkpt>
      <trkpt lat="54.241768096155" lon="15.873799464444">
        <ele>0</ele>
        <time>2019-07-29T15:48:50Z</time>
      </trkpt>
      <trkpt lat="54.241586879477" lon="15.87382829818">
        <ele>0</ele>
        <time>2019-07-29T15:49:15Z</time>
      </trkpt>
      <trkpt lat="54.241316395564" lon="15.874083443216">
        <ele>0</ele>
        <time>2019-07-29T15:51:00Z</time>
      </trkpt>
      <trkpt lat="54.241321424704" lon="15.874206740965">
        <ele>0</ele>
        <time>2019-07-29T15:51:11Z</time>
      </trkpt>
      <trkpt lat="54.241330560975" lon="15.874362057572">
        <ele>0</ele>
        <time>2019-07-29T15:51:22Z</time>
      </trkpt>
      <trkpt lat="54.241330644794" lon="15.874404050891">
        <ele>0</ele>
        <time>2019-07-29T15:51:25Z</time>
      </trkpt>
      <trkpt lat="54.241336176848" lon="15.874474458851">
        <ele>0</ele>
        <time>2019-07-29T15:51:30Z</time>
      </trkpt>
      <trkpt lat="54.241379511271" lon="15.874596750772">
        <ele>0</ele>
        <time>2019-07-29T15:51:40Z</time>
      </trkpt>
      <trkpt lat="54.241410943396" lon="15.874853488369">
        <ele>0</ele>
        <time>2019-07-29T15:52:52Z</time>
      </trkpt>
      <trkpt lat="54.241419912029" lon="15.874919034827">
        <ele>0</ele>
        <time>2019-07-29T15:52:56Z</time>
      </trkpt>
      <trkpt lat="54.241437681657" lon="15.87496320744">
        <ele>0</ele>
        <time>2019-07-29T15:53:03Z</time>
      </trkpt>
      <trkpt lat="54.241364004756" lon="15.874792635775">
        <ele>0</ele>
        <time>2019-07-29T15:54:53Z</time>
      </trkpt>
      <trkpt lat="54.241386468248" lon="15.874731364086">
        <ele>0</ele>
        <time>2019-07-29T15:55:29Z</time>
      </trkpt>
      <trkpt lat="54.241467018307" lon="15.874678558116">
        <ele>0</ele>
        <time>2019-07-29T15:55:43Z</time>
      </trkpt>
      <trkpt lat="54.241406500989" lon="15.874701440703">
        <ele>0</ele>
        <time>2019-07-29T15:56:29Z</time>
      </trkpt>
      <trkpt lat="54.24139132975" lon="15.874791210852">
        <ele>0</ele>
        <time>2019-07-29T15:56:37Z</time>
      </trkpt>
      <trkpt lat="54.241312036976" lon="15.874803364607">
        <ele>0</ele>
        <time>2019-07-29T15:57:17Z</time>
      </trkpt>
      <trkpt lat="54.241283789973" lon="15.874816608009">
        <ele>0</ele>
        <time>2019-07-29T15:57:20Z</time>
      </trkpt>
      <trkpt lat="54.241243640672" lon="15.874837646578">
        <ele>0</ele>
        <time>2019-07-29T15:57:38Z</time>
      </trkpt>
      <trkpt lat="54.241227212148" lon="15.874814261077">
        <ele>0</ele>
        <time>2019-07-29T15:59:35Z</time>
      </trkpt>
      <trkpt lat="54.241254118047" lon="15.874832114524">
        <ele>0</ele>
        <time>2019-07-29T16:00:04Z</time>
      </trkpt>
      <trkpt lat="54.24120608976" lon="15.874525253165">
        <ele>0</ele>
        <time>2019-07-29T16:00:43Z</time>
      </trkpt>
      <trkpt lat="54.240909621957" lon="15.874192743192">
        <ele>0</ele>
        <time>2019-07-29T16:01:45Z</time>
      </trkpt>
      <trkpt lat="54.240868634466" lon="15.874105571432">
        <ele>0</ele>
        <time>2019-07-29T16:01:54Z</time>
      </trkpt>
      <trkpt lat="54.240861845127" lon="15.874089562003">
        <ele>0</ele>
        <time>2019-07-29T16:01:56Z</time>
      </trkpt>
      <trkpt lat="54.240848266449" lon="15.874059303344">
        <ele>0</ele>
        <time>2019-07-29T16:01:59Z</time>
      </trkpt>
      <trkpt lat="54.24080208218" lon="15.874017058568">
        <ele>0</ele>
        <time>2019-07-29T16:02:08Z</time>
      </trkpt>
      <trkpt lat="54.240782719991" lon="15.874180673256">
        <ele>0</ele>
        <time>2019-07-29T16:03:06Z</time>
      </trkpt>
      <trkpt lat="54.240481977419" lon="15.874281339875">
        <ele>0</ele>
        <time>2019-07-29T16:04:16Z</time>
      </trkpt>
      <trkpt lat="54.240404109568" lon="15.874342360107">
        <ele>0</ele>
        <time>2019-07-29T16:04:38Z</time>
      </trkpt>
      <trkpt lat="54.240411150364" lon="15.874312185267">
        <ele>0</ele>
        <time>2019-07-29T16:04:40Z</time>
      </trkpt>
      <trkpt lat="54.240436882797" lon="15.874354849138">
        <ele>0</ele>
        <time>2019-07-29T16:04:54Z</time>
      </trkpt>
    </trkseg>
  </trk>
</gpx>